createdAt,value
2019-04-20T00:03:51.969Z,36.58
2019-04-20T00:09:06.155Z,36.33
2019-04-20T00:14:10.962Z,36.27
2019-04-20T00:19:17.255Z,36.26
2019-04-20T00:24:33.232Z,36.13
2019-04-20T00:29:54.889Z,36.03
2019-04-20T00:34:45.390Z,36.22
2019-04-20T00:39:49.287Z,36.64
2019-04-20T00:45:00.634Z,36.67
2019-04-20T00:50:19.549Z,36.96
2019-04-20T00:55:08.327Z,36.95
2019-04-20T01:00:31.055Z,37.04
2019-04-20T01:05:55.537Z,36.83
2019-04-20T01:10:41.647Z,37.15
2019-04-20T01:15:54.165Z,37.17
2019-04-20T01:20:53.552Z,37.70
2019-04-20T01:26:05.700Z,37.70
2019-04-20T01:31:31.578Z,37.79
2019-04-20T01:36:46.183Z,38.51
2019-04-20T01:41:39.297Z,39.07
2019-04-20T01:46:50.708Z,38.76
2019-04-20T01:52:04.931Z,39.29
2019-04-20T01:57:24.792Z,39.23
2019-04-20T02:02:34.369Z,39.65
2019-04-20T02:07:43.773Z,39.38
2019-04-20T02:12:53.890Z,39.15
2019-04-20T02:18:07.677Z,39.37
2019-04-20T02:23:16.471Z,39.57
2019-04-20T02:28:25.724Z,39.80
2019-04-20T02:39:26.405Z,40.05
2019-04-20T02:44:18.054Z,39.89
2019-04-20T02:49:32.468Z,40.30
2019-04-20T02:54:26.454Z,40.36
2019-04-20T02:59:54.252Z,40.58
2019-04-20T03:04:20.373Z,40.84
2019-04-20T03:09:33.082Z,40.79
2019-04-20T03:14:40.076Z,40.46
2019-04-20T03:19:44.871Z,40.30
2019-04-20T03:25:03.637Z,40.63
2019-04-20T03:30:22.296Z,40.62
2019-04-20T03:40:19.109Z,41.13
2019-04-20T03:45:14.989Z,41.69
2019-04-20T03:50:43.575Z,42.09
2019-04-20T03:56:02.265Z,42.73
2019-04-20T04:01:45.211Z,43.00
2019-04-20T04:06:24.353Z,43.35
2019-04-20T04:11:41.504Z,43.37
2019-04-20T04:16:38.370Z,43.87
2019-04-20T04:21:54.919Z,44.46
2019-04-20T04:26:59.412Z,45.33
2019-04-20T04:32:46.806Z,45.79
2019-04-20T04:37:16.433Z,46.26
2019-04-20T04:42:30.406Z,47.44
2019-04-20T04:47:14.818Z,47.73
2019-04-20T04:52:29.422Z,48.38
2019-04-20T04:57:26.353Z,48.69
2019-04-20T05:02:39.315Z,49.63
2019-04-20T05:07:52.055Z,50.67
2019-04-20T05:12:51.806Z,50.71
2019-04-20T05:18:20.664Z,51.09
2019-04-20T05:23:24.379Z,51.17
2019-04-20T05:28:32.535Z,51.61
2019-04-20T05:33:56.059Z,50.73
2019-04-20T05:38:55.781Z,50.93
2019-04-20T05:44:09.872Z,51.09
2019-04-20T05:49:21.963Z,50.04
2019-04-20T05:54:32.662Z,49.30
2019-04-20T06:00:13.934Z,48.70
2019-04-20T06:05:25.525Z,48.00
2019-04-20T06:10:31.704Z,47.61
2019-04-20T06:15:40.749Z,47.40
2019-04-20T06:20:48.424Z,47.15
2019-04-20T06:30:55.247Z,46.11
2019-04-20T06:36:20.510Z,45.67
2019-04-20T06:41:30.230Z,45.60
2019-04-20T06:46:24.027Z,45.41
2019-04-20T06:51:40.995Z,45.29
2019-04-20T06:56:45.456Z,45.57
2019-04-20T07:02:11.968Z,45.65
2019-04-20T07:07:14.372Z,45.85
2019-04-20T07:12:12.312Z,44.89
2019-04-20T07:17:58.969Z,45.10
2019-04-20T07:23:18.159Z,45.29
2019-04-20T07:28:27.766Z,45.10
2019-04-20T07:33:30.328Z,44.54
2019-04-20T07:38:40.228Z,44.44
2019-04-20T07:43:54.008Z,44.39
2019-04-20T07:48:54.088Z,43.95
2019-04-20T07:53:59.514Z,43.75
2019-04-20T07:58:52.756Z,43.67
2019-04-20T08:04:39.061Z,43.90
2019-04-20T08:09:34.956Z,43.67
2019-04-20T08:15:03.550Z,44.25
2019-04-20T08:20:05.777Z,44.49
2019-04-20T08:25:12.587Z,43.62
2019-04-20T08:30:32.298Z,43.95
2019-04-20T08:35:48.095Z,43.54
2019-04-20T08:40:49.018Z,43.42
2019-04-20T08:46:03.109Z,42.82
2019-04-20T08:51:07.334Z,42.96
2019-04-20T08:56:15.900Z,43.52
2019-04-20T09:01:10.137Z,42.04
2019-04-20T09:06:31.026Z,42.28
2019-04-20T09:11:45.179Z,42.40
2019-04-20T09:16:35.672Z,41.69
2019-04-20T09:21:46.238Z,41.45
2019-04-20T09:27:01.159Z,42.05
2019-04-20T09:32:16.946Z,41.18
2019-04-20T09:37:44.710Z,40.99
2019-04-20T09:42:36.795Z,40.34
2019-04-20T09:47:46.828Z,39.08
2019-04-20T09:53:07.584Z,39.02
2019-04-20T09:58:08.471Z,38.23
2019-04-20T10:03:04.427Z,37.48
2019-04-20T10:08:11.364Z,36.79
2019-04-20T10:13:23.031Z,37.36
2019-04-20T10:18:28.247Z,35.80
2019-04-20T10:23:34.555Z,34.88
2019-04-20T10:28:41.406Z,34.81
2019-04-20T10:33:46.765Z,33.74
2019-04-20T10:38:52.701Z,32.32
2019-04-20T10:43:58.734Z,30.35
2019-04-20T10:49:04.889Z,29.86
2019-04-20T10:54:12.199Z,30.62
2019-04-20T10:59:19.283Z,30.23
2019-04-20T11:04:26.326Z,29.26
2019-04-20T11:09:32.492Z,27.80
2019-04-20T11:14:40.906Z,27.11
2019-04-20T11:19:47.571Z,25.86
2019-04-20T11:24:54.212Z,25.02
2019-04-20T11:30:02.591Z,25.52
2019-04-20T11:35:18.986Z,24.50
2019-04-20T11:40:16.764Z,24.60
2019-04-20T11:45:22.607Z,23.68
2019-04-20T11:50:29.612Z,23.85
2019-04-20T11:55:36.234Z,23.87
2019-04-20T12:00:57.659Z,21.70
2019-04-20T12:05:57.412Z,21.45
2019-04-20T12:11:21.362Z,21.56
2019-04-20T12:16:12.009Z,19.53
2019-04-20T12:21:36.876Z,20.31
2019-04-20T12:26:43.047Z,19.86
2019-04-20T12:32:01.238Z,18.89
2019-04-20T12:37:05.021Z,17.14
2019-04-20T12:42:14.777Z,17.95
2019-04-20T12:47:21.617Z,17.59
2019-04-20T12:52:28.356Z,18.17
2019-04-20T12:57:34.490Z,18.22
2019-04-20T13:02:43.263Z,18.88
2019-04-20T13:07:56.027Z,19.48
2019-04-20T13:13:22.687Z,19.11
2019-04-20T13:18:50.919Z,19.24
2019-04-20T13:23:56.939Z,19.86
2019-04-20T13:29:02.643Z,19.81
2019-04-20T13:34:07.853Z,18.42
2019-04-20T13:39:14.298Z,18.52
2019-04-20T13:44:35.218Z,19.42
2019-04-20T13:49:40.975Z,20.11
2019-04-20T13:55:10.908Z,19.87
2019-04-20T14:00:54.117Z,19.63
2019-04-20T14:06:30.375Z,20.37
2019-04-20T14:11:35.698Z,19.87
2019-04-20T14:16:41.620Z,20.42
2019-04-20T14:21:48.132Z,20.12
2019-04-20T14:26:54.829Z,20.92
2019-04-20T14:32:07.698Z,20.49
2019-04-20T14:37:13.351Z,20.05
2019-04-20T14:42:30.187Z,20.83
2019-04-20T14:47:27.890Z,20.83
2019-04-20T14:52:35.473Z,21.52
2019-04-20T14:57:43.535Z,21.20
2019-04-20T15:02:50.022Z,22.36
2019-04-20T15:07:56.408Z,22.17
2019-04-20T15:13:06.209Z,22.99
2019-04-20T15:18:13.377Z,23.18
2019-04-20T15:23:21.921Z,23.28
2019-04-20T15:28:28.409Z,23.75
2019-04-20T15:33:34.790Z,23.67
2019-04-20T15:38:40.917Z,24.12
2019-04-20T15:43:48.987Z,24.26
2019-04-20T15:48:55.522Z,24.17
2019-04-20T15:54:02.194Z,24.92
2019-04-20T15:59:08.427Z,24.57
2019-04-20T16:04:35.601Z,24.63
2019-04-20T16:09:38.407Z,24.81
2019-04-20T16:14:55.479Z,24.85
2019-04-20T16:20:10.331Z,24.46
2019-04-20T16:25:32.709Z,25.08
2019-04-20T16:30:45.508Z,24.96
2019-04-20T16:35:52.257Z,24.70
2019-04-20T16:40:57.443Z,24.76
2019-04-20T16:46:03.448Z,24.98
2019-04-20T16:51:10.914Z,25.08
2019-04-20T16:56:19.437Z,25.17
2019-04-20T17:01:25.614Z,25.04
2019-04-20T17:06:32.094Z,25.38
2019-04-20T17:11:37.331Z,25.08
2019-04-20T17:16:44.053Z,25.52
2019-04-20T17:21:53.383Z,25.86
2019-04-20T17:27:19.152Z,26.08
2019-04-20T17:32:25.490Z,26.00
2019-04-20T17:37:37.664Z,27.14
2019-04-20T17:42:50.973Z,28.41
2019-04-20T17:48:04.690Z,29.34
2019-04-20T17:53:08.721Z,30.07
2019-04-20T17:58:05.653Z,30.54
2019-04-20T18:03:50.917Z,30.57
2019-04-20T18:08:36.939Z,31.04
2019-04-20T18:13:31.045Z,30.75
2019-04-20T18:19:01.484Z,31.05
2019-04-20T18:23:58.271Z,31.17
2019-04-20T18:29:26.237Z,31.72
2019-04-20T18:34:21.988Z,32.11
2019-04-20T18:39:38.625Z,32.09
2019-04-20T18:44:55.842Z,32.77
2019-04-20T18:49:50.449Z,33.21
2019-04-20T18:54:49.814Z,33.72
2019-04-20T18:59:56.437Z,34.03
2019-04-20T19:05:03.863Z,34.41
2019-04-20T19:10:18.673Z,35.00
2019-04-20T19:15:56.602Z,35.42
2019-04-20T19:20:55.324Z,35.49
2019-04-20T19:26:08.682Z,35.68
2019-04-20T19:31:25.229Z,36.00
2019-04-20T19:36:27.585Z,36.27
2019-04-20T19:41:37.809Z,36.56
2019-04-20T19:46:49.267Z,36.91
2019-04-20T19:52:14.875Z,37.39
2019-04-20T19:57:01.357Z,36.82
2019-04-20T20:01:53.831Z,36.45
2019-04-20T20:07:05.165Z,36.76
2019-04-20T20:12:12.253Z,37.41
2019-04-20T20:18:15.611Z,37.38
2019-04-20T20:23:21.273Z,37.41
2019-04-20T20:28:39.596Z,37.18
2019-04-20T20:33:49.681Z,37.08
2019-04-20T20:38:46.926Z,37.99
2019-04-20T20:44:02.686Z,37.79
2019-04-20T20:49:16.091Z,37.50
2019-04-20T20:54:22.292Z,37.22
2019-04-20T20:59:26.779Z,37.17
2019-04-20T21:04:21.731Z,37.24
2019-04-20T21:09:27.342Z,37.36
2019-04-20T21:14:35.362Z,37.31
2019-04-20T21:19:57.956Z,37.00
2019-04-20T21:24:51.454Z,36.78
2019-04-20T21:30:00.487Z,36.78
2019-04-20T21:35:10.397Z,36.93
2019-04-20T21:40:22.932Z,37.20
2019-04-20T21:45:25.671Z,37.26
2019-04-20T21:50:44.101Z,37.33
2019-04-20T21:55:36.095Z,37.45
2019-04-20T22:01:05.154Z,37.48
2019-04-20T22:06:06.822Z,37.58
2019-04-20T22:11:13.662Z,37.27
2019-04-20T22:16:20.838Z,37.40
2019-04-20T22:21:42.497Z,37.68
2019-04-20T22:26:41.613Z,37.81
2019-04-20T22:31:46.208Z,38.18
2019-04-20T22:36:50.326Z,38.56
2019-04-20T22:42:00.120Z,38.73
2019-04-20T22:47:05.520Z,38.90
2019-04-20T22:52:26.581Z,39.13
2019-04-20T22:57:39.338Z,39.11
2019-04-20T23:02:29.586Z,39.39
2019-04-20T23:07:36.945Z,39.77
2019-04-20T23:13:16.264Z,39.89
2019-04-20T23:18:22.441Z,40.04
2019-04-20T23:23:30.471Z,40.22
2019-04-20T23:28:35.533Z,40.17
2019-04-20T23:33:40.565Z,40.12
2019-04-20T23:38:49.001Z,40.32
2019-04-20T23:44:08.718Z,40.33
2019-04-20T23:49:30.931Z,40.54
2019-04-20T23:54:37.279Z,40.82
2019-04-20T23:59:44.373Z,40.99
